createdAt,value
2019-03-29T00:00:51.853Z,984.13
2019-03-29T00:02:01.961Z,984.17
2019-03-29T00:03:11.881Z,984.19
2019-03-29T00:04:21.811Z,984.12
2019-03-29T00:05:32.317Z,984.11
2019-03-29T00:06:41.992Z,984.02
2019-03-29T00:07:51.917Z,984.01
2019-03-29T00:09:02.070Z,983.98
2019-03-29T00:10:11.992Z,983.9
2019-03-29T00:11:22.009Z,983.94
2019-03-29T00:12:31.929Z,983.99
2019-03-29T00:13:41.901Z,983.91
2019-03-29T00:14:52.785Z,983.88
2019-03-29T00:16:02.724Z,983.93
2019-03-29T00:17:12.396Z,983.83
2019-03-29T00:18:23.220Z,983.89
2019-03-29T00:19:33.232Z,983.89
2019-03-29T00:20:43.166Z,983.87
2019-03-29T00:21:54.025Z,983.88
2019-03-29T00:23:05.431Z,983.85
2019-03-29T00:24:15.362Z,983.91
2019-03-29T00:25:25.334Z,983.9
2019-03-29T00:26:35.929Z,983.79
2019-03-29T00:27:45.851Z,983.83
2019-03-29T00:28:55.818Z,983.88
2019-03-29T00:30:06.190Z,983.84
2019-03-29T00:31:16.111Z,983.85
2019-03-29T00:32:26.038Z,983.85
2019-03-29T00:33:36.980Z,983.84
2019-03-29T00:34:46.901Z,983.81
2019-03-29T00:35:56.864Z,983.8
2019-03-29T00:37:07.485Z,983.82
2019-03-29T00:38:18.418Z,983.8
2019-03-29T00:39:28.401Z,983.81
2019-03-29T00:40:38.431Z,983.86
2019-03-29T00:41:48.372Z,983.84
2019-03-29T00:42:58.544Z,983.85
2019-03-29T00:44:09.451Z,983.74
2019-03-29T00:45:19.399Z,983.78
2019-03-29T00:46:29.435Z,983.79
2019-03-29T00:47:40.596Z,983.79
2019-03-29T00:48:50.514Z,983.83
2019-03-29T00:50:00.434Z,983.8
2019-03-29T00:51:10.524Z,983.86
2019-03-29T00:52:20.452Z,983.76
2019-03-29T00:53:30.371Z,983.77
2019-03-29T00:54:41.030Z,983.86
2019-03-29T00:55:50.700Z,983.82
2019-03-29T00:57:00.621Z,983.77
2019-03-29T00:58:10.546Z,983.78
2019-03-29T00:59:20.467Z,983.78
2019-03-29T01:00:31.536Z,983.81
2019-03-29T01:01:41.615Z,983.74
2019-03-29T01:02:51.539Z,983.74
2019-03-29T01:04:02.899Z,983.72
2019-03-29T01:05:12.977Z,983.76
2019-03-29T01:06:23.696Z,983.69
2019-03-29T01:07:33.648Z,983.72
2019-03-29T01:08:43.578Z,983.71
2019-03-29T01:09:53.519Z,983.71
2019-03-29T01:11:04.400Z,983.68
2019-03-29T01:12:15.263Z,983.61
2019-03-29T01:13:25.205Z,983.59
2019-03-29T01:14:35.156Z,983.45
2019-03-29T01:15:45.902Z,983.48
2019-03-29T01:16:55.821Z,983.44
2019-03-29T01:18:05.740Z,983.39
2019-03-29T01:19:17.042Z,983.42
2019-03-29T01:20:26.962Z,983.41
2019-03-29T01:21:37.129Z,983.38
2019-03-29T01:22:47.546Z,983.34
2019-03-29T01:23:58.302Z,983.35
2019-03-29T01:25:08.607Z,983.34
2019-03-29T01:26:18.602Z,983.18
2019-03-29T01:27:29.894Z,983.08
2019-03-29T01:28:39.816Z,983.08
2019-03-29T01:29:49.742Z,983.04
2019-03-29T01:30:59.912Z,983.12
2019-03-29T01:32:09.836Z,983.02
2019-03-29T01:33:19.818Z,983.04
2019-03-29T01:34:30.425Z,983.03
2019-03-29T01:35:40.095Z,982.96
2019-03-29T01:36:50.047Z,982.96
2019-03-29T01:38:01.330Z,982.93
2019-03-29T01:39:25.101Z,982.97
2019-03-29T01:40:35.145Z,982.86
2019-03-29T01:41:45.266Z,982.93
2019-03-29T01:42:56.081Z,982.87
2019-03-29T01:44:06.013Z,982.89
2019-03-29T01:45:15.947Z,982.85
2019-03-29T01:46:25.874Z,982.83
2019-03-29T01:47:35.796Z,982.85
2019-03-29T01:48:45.742Z,982.83
2019-03-29T01:49:56.658Z,982.82
2019-03-29T01:51:06.621Z,982.78
2019-03-29T01:52:16.538Z,982.82
2019-03-29T01:53:27.520Z,982.81
2019-03-29T01:54:38.325Z,982.82
2019-03-29T01:55:48.870Z,982.76
2019-03-29T01:56:58.842Z,982.74
2019-03-29T01:58:09.715Z,982.67
2019-03-29T01:59:19.634Z,982.63
2019-03-29T02:00:29.555Z,982.64
2019-03-29T02:01:39.607Z,982.59
2019-03-29T02:02:49.533Z,982.52
2019-03-29T02:03:59.450Z,982.47
2019-03-29T02:05:11.374Z,982.45
2019-03-29T02:06:21.312Z,982.45
2019-03-29T02:07:31.335Z,982.48
2019-03-29T02:08:41.278Z,982.4
2019-03-29T02:09:51.205Z,982.47
2019-03-29T02:11:02.059Z,982.41
2019-03-29T02:12:11.981Z,982.44
2019-03-29T02:13:21.746Z,982.37
2019-03-29T02:14:31.681Z,982.35
2019-03-29T02:15:41.601Z,982.33
2019-03-29T02:16:51.516Z,982.36
2019-03-29T02:18:01.480Z,982.37
2019-03-29T02:19:11.429Z,982.34
2019-03-29T02:20:21.358Z,982.32
2019-03-29T02:21:31.234Z,982.33
2019-03-29T02:22:41.163Z,982.26
2019-03-29T02:23:51.103Z,982.27
2019-03-29T02:25:02.251Z,982.3
2019-03-29T02:26:11.924Z,982.36
2019-03-29T02:27:21.849Z,982.36
2019-03-29T02:28:32.410Z,982.29
2019-03-29T02:29:42.328Z,982.28
2019-03-29T02:30:52.331Z,982.24
2019-03-29T02:32:02.913Z,982.16
2019-03-29T02:33:12.874Z,982.13
2019-03-29T02:34:23.928Z,982.13
2019-03-29T02:35:33.882Z,982.08
2019-03-29T02:36:46.146Z,982.04
2019-03-29T02:37:56.536Z,982
2019-03-29T02:39:06.896Z,982.04
2019-03-29T02:40:16.844Z,981.98
2019-03-29T02:41:27.979Z,982.02
2019-03-29T02:42:38.048Z,981.99
2019-03-29T02:43:48.544Z,981.93
2019-03-29T02:44:58.496Z,981.99
2019-03-29T02:46:11.023Z,982.03
2019-03-29T02:47:21.655Z,981.98
2019-03-29T02:48:31.965Z,981.96
2019-03-29T02:49:41.902Z,981.94
2019-03-29T02:50:51.579Z,981.99
2019-03-29T02:52:01.657Z,981.96
2019-03-29T02:53:11.611Z,981.98
2019-03-29T02:54:21.549Z,982.03
2019-03-29T02:55:31.488Z,982.04
2019-03-29T02:56:41.430Z,982.04
2019-03-29T02:57:51.397Z,982.07
2019-03-29T02:59:01.443Z,982.03
2019-03-29T03:00:11.129Z,982.03
2019-03-29T03:01:20.812Z,982.01
2019-03-29T03:02:30.756Z,982.06
2019-03-29T03:03:40.777Z,982.01
2019-03-29T03:04:50.716Z,981.99
2019-03-29T03:06:01.092Z,981.93
2019-03-29T03:07:10.794Z,981.88
2019-03-29T03:08:20.758Z,981.84
2019-03-29T03:09:35.591Z,981.87
2019-03-29T03:10:45.548Z,981.88
2019-03-29T03:11:55.349Z,981.85
2019-03-29T03:13:05.288Z,981.84
2019-03-29T03:14:15.136Z,981.77
2019-03-29T03:15:25.098Z,981.82
2019-03-29T03:16:35.032Z,981.82
2019-03-29T03:17:44.988Z,981.75
2019-03-29T03:18:54.934Z,981.77
2019-03-29T03:20:04.882Z,981.75
2019-03-29T03:21:19.790Z,981.76
2019-03-29T03:22:29.503Z,981.72
2019-03-29T03:23:39.533Z,981.79
2019-03-29T03:24:49.462Z,981.77
2019-03-29T03:25:59.474Z,981.81
2019-03-29T03:27:09.501Z,981.75
2019-03-29T03:28:19.450Z,981.77
2019-03-29T03:29:29.523Z,981.7
2019-03-29T03:30:39.485Z,981.67
2019-03-29T03:31:49.539Z,981.74
2019-03-29T03:32:59.598Z,981.72
2019-03-29T03:34:09.627Z,981.63
2019-03-29T03:35:19.676Z,981.64
2019-03-29T03:36:29.919Z,981.54
2019-03-29T03:37:39.959Z,981.62
2019-03-29T03:38:49.904Z,981.65
2019-03-29T03:39:59.846Z,981.63
2019-03-29T03:41:09.888Z,981.6
2019-03-29T03:42:19.831Z,981.57
2019-03-29T03:43:29.777Z,981.56
2019-03-29T03:44:39.742Z,981.54
2019-03-29T03:45:49.684Z,981.53
2019-03-29T03:46:59.719Z,981.53
2019-03-29T03:48:09.727Z,981.48
2019-03-29T03:49:19.695Z,981.5
2019-03-29T03:50:29.384Z,981.48
2019-03-29T03:51:39.384Z,981.52
2019-03-29T03:52:49.465Z,981.45
2019-03-29T03:53:59.430Z,981.39
2019-03-29T03:55:09.363Z,981.36
2019-03-29T03:56:19.435Z,981.47
2019-03-29T03:57:29.367Z,981.41
2019-03-29T03:58:39.429Z,981.43
2019-03-29T03:59:49.439Z,981.39
2019-03-29T04:00:59.423Z,981.4
2019-03-29T04:02:09.365Z,981.49
2019-03-29T04:03:19.318Z,981.45
2019-03-29T04:04:29.452Z,981.43
2019-03-29T04:05:42.975Z,981.35
2019-03-29T04:06:52.663Z,981.38
2019-03-29T04:08:02.634Z,981.22
2019-03-29T04:09:12.579Z,981.25
2019-03-29T04:10:22.513Z,981.17
2019-03-29T04:11:32.466Z,981.14
2019-03-29T04:12:42.179Z,981.21
2019-03-29T04:13:51.862Z,981.11
2019-03-29T04:15:01.809Z,981.14
2019-03-29T04:16:11.846Z,981.14
2019-03-29T04:17:21.809Z,981.14
2019-03-29T04:18:31.818Z,981.15
2019-03-29T04:19:41.759Z,981.11
2019-03-29T04:20:51.708Z,981.15
2019-03-29T04:22:01.833Z,981.07
2019-03-29T04:23:11.914Z,981.09
2019-03-29T04:24:21.859Z,981.09
2019-03-29T04:25:31.828Z,981.06
2019-03-29T04:26:41.797Z,980.97
2019-03-29T04:27:51.726Z,981
2019-03-29T04:29:04.513Z,980.98
2019-03-29T04:30:14.866Z,980.94
2019-03-29T04:31:24.803Z,980.84
2019-03-29T04:32:34.503Z,980.8
2019-03-29T04:33:44.564Z,980.83
2019-03-29T04:34:54.500Z,980.88
2019-03-29T04:36:04.450Z,980.76
2019-03-29T04:37:14.458Z,980.77
2019-03-29T04:38:24.388Z,980.76
2019-03-29T04:39:34.417Z,980.71
2019-03-29T04:40:44.359Z,980.74
2019-03-29T04:41:54.313Z,980.66
2019-03-29T04:43:04.269Z,980.65
2019-03-29T04:44:14.212Z,980.68
2019-03-29T04:45:24.239Z,980.79
2019-03-29T04:46:34.184Z,980.77
2019-03-29T04:47:44.108Z,980.74
2019-03-29T04:48:54.039Z,980.72
2019-03-29T04:50:03.975Z,980.74
2019-03-29T04:51:14.056Z,980.74
2019-03-29T04:52:24.004Z,980.72
2019-03-29T04:53:33.687Z,980.81
2019-03-29T04:54:43.611Z,980.85
2019-03-29T04:55:53.533Z,980.84
2019-03-29T04:57:03.458Z,980.82
2019-03-29T04:58:13.378Z,980.8
2019-03-29T04:59:23.297Z,980.83
2019-03-29T05:00:33.218Z,980.87
2019-03-29T05:01:43.153Z,980.77
2019-03-29T05:02:53.078Z,980.83
2019-03-29T05:04:03.004Z,980.82
2019-03-29T05:05:12.928Z,980.87
2019-03-29T05:06:22.878Z,980.83
2019-03-29T05:07:32.808Z,980.76
2019-03-29T05:08:44.791Z,980.78
2019-03-29T05:09:54.737Z,980.74
2019-03-29T05:11:04.703Z,980.87
2019-03-29T05:12:14.713Z,980.78
2019-03-29T05:13:24.641Z,980.85
2019-03-29T05:14:34.574Z,980.92
2019-03-29T05:15:44.500Z,980.77
2019-03-29T05:16:54.427Z,980.9
2019-03-29T05:18:04.354Z,980.82
2019-03-29T05:19:14.277Z,980.87
2019-03-29T05:20:24.299Z,980.83
2019-03-29T05:21:34.223Z,980.8
2019-03-29T05:22:44.156Z,980.83
2019-03-29T05:23:54.088Z,980.81
2019-03-29T05:25:04.012Z,980.79
2019-03-29T05:26:14.032Z,980.8
2019-03-29T05:27:25.969Z,980.79
2019-03-29T05:28:35.892Z,980.83
2019-03-29T05:29:45.817Z,980.79
2019-03-29T05:30:55.744Z,980.79
2019-03-29T05:32:05.668Z,980.76
2019-03-29T05:33:15.588Z,980.88
2019-03-29T05:34:25.517Z,980.81
2019-03-29T05:35:35.579Z,980.84
2019-03-29T05:36:45.532Z,980.78
2019-03-29T05:37:58.981Z,980.75
2019-03-29T05:39:08.907Z,980.78
2019-03-29T05:40:18.834Z,980.79
2019-03-29T05:41:41.934Z,980.72
2019-03-29T05:42:51.861Z,980.7
2019-03-29T05:44:01.884Z,980.69
2019-03-29T05:45:11.804Z,980.71
2019-03-29T05:46:21.780Z,980.71
2019-03-29T05:47:31.776Z,980.75
2019-03-29T05:48:41.805Z,980.83
2019-03-29T05:49:51.725Z,980.85
2019-03-29T05:51:01.397Z,980.76
2019-03-29T05:52:11.328Z,980.78
2019-03-29T05:53:20.996Z,980.8
2019-03-29T05:54:31.021Z,980.84
2019-03-29T05:55:40.953Z,980.84
2019-03-29T05:56:53.585Z,980.75
2019-03-29T05:58:03.524Z,980.82
2019-03-29T05:59:13.451Z,980.69
2019-03-29T06:00:23.478Z,980.76
2019-03-29T06:01:33.414Z,980.69
2019-03-29T06:02:43.337Z,980.74
2019-03-29T06:03:53.262Z,980.73
2019-03-29T06:05:03.195Z,980.75
2019-03-29T06:06:13.119Z,980.76
2019-03-29T06:07:23.055Z,980.76
2019-03-29T06:08:32.974Z,980.73
2019-03-29T06:09:42.906Z,980.7
2019-03-29T06:10:52.836Z,980.7
2019-03-29T06:12:02.866Z,980.72
2019-03-29T06:13:12.792Z,980.76
2019-03-29T06:14:22.721Z,980.84
2019-03-29T06:15:32.646Z,980.81
2019-03-29T06:16:42.569Z,980.86
2019-03-29T06:17:52.547Z,980.84
2019-03-29T06:19:02.470Z,980.88
2019-03-29T06:20:12.394Z,980.75
2019-03-29T06:21:22.348Z,980.86
2019-03-29T06:22:32.283Z,980.84
2019-03-29T06:23:42.305Z,980.78
2019-03-29T06:24:52.240Z,980.81
2019-03-29T06:26:02.170Z,980.82
2019-03-29T06:27:12.131Z,980.84
2019-03-29T06:28:22.059Z,980.89
2019-03-29T06:29:35.117Z,980.84
2019-03-29T06:30:45.041Z,980.82
2019-03-29T06:31:54.961Z,980.74
2019-03-29T06:33:04.882Z,980.83
2019-03-29T06:34:14.807Z,980.84
2019-03-29T06:35:24.791Z,980.86
2019-03-29T06:36:34.720Z,980.84
2019-03-29T06:37:44.645Z,980.81
2019-03-29T06:38:54.577Z,980.83
2019-03-29T06:40:04.584Z,980.77
2019-03-29T06:41:14.613Z,980.84
2019-03-29T06:42:24.583Z,980.81
2019-03-29T06:43:34.508Z,980.9
2019-03-29T06:44:44.576Z,981.01
2019-03-29T06:45:54.518Z,980.81
2019-03-29T06:47:04.506Z,980.78
2019-03-29T06:48:14.430Z,980.78
2019-03-29T06:49:24.362Z,980.81
2019-03-29T06:50:34.076Z,980.85
2019-03-29T06:51:44.273Z,980.92
2019-03-29T06:52:54.252Z,980.83
2019-03-29T06:54:04.192Z,980.83
2019-03-29T06:55:14.131Z,980.83
2019-03-29T06:56:24.053Z,980.81
2019-03-29T06:57:34.078Z,980.83
2019-03-29T06:58:44.011Z,980.81
2019-03-29T06:59:53.933Z,980.81
2019-03-29T07:01:03.854Z,980.84
2019-03-29T07:02:13.522Z,980.8
2019-03-29T07:03:23.192Z,980.78
2019-03-29T07:04:33.218Z,980.79
2019-03-29T07:05:43.156Z,980.8
2019-03-29T07:06:53.162Z,980.79
2019-03-29T07:08:03.090Z,980.77
2019-03-29T07:09:13.011Z,980.87
2019-03-29T07:10:23.049Z,980.83
2019-03-29T07:11:32.991Z,980.83
2019-03-29T07:12:44.920Z,980.87
2019-03-29T07:13:58.092Z,980.83
2019-03-29T07:15:08.128Z,980.83
2019-03-29T07:16:18.051Z,980.74
2019-03-29T07:17:27.987Z,980.83
2019-03-29T07:18:37.915Z,980.78
2019-03-29T07:19:47.846Z,980.83
2019-03-29T07:20:57.771Z,980.82
2019-03-29T07:22:20.996Z,980.88
2019-03-29T07:23:30.921Z,980.91
2019-03-29T07:24:40.845Z,980.83
2019-03-29T07:25:50.883Z,980.89
2019-03-29T07:27:03.920Z,980.84
2019-03-29T07:28:13.971Z,980.86
2019-03-29T07:29:23.721Z,980.88
2019-03-29T07:30:33.669Z,980.83
2019-03-29T07:31:43.602Z,980.8
2019-03-29T07:32:56.069Z,980.88
2019-03-29T07:34:06.102Z,980.88
2019-03-29T07:35:16.046Z,980.85
2019-03-29T07:36:25.975Z,980.78
2019-03-29T07:37:35.896Z,980.79
2019-03-29T07:38:45.833Z,980.76
2019-03-29T07:39:55.609Z,980.74
2019-03-29T07:41:05.579Z,980.7
2019-03-29T07:42:15.549Z,980.73
2019-03-29T07:43:25.476Z,980.69
2019-03-29T07:44:35.457Z,980.69
2019-03-29T07:45:45.464Z,980.68
2019-03-29T07:46:55.389Z,980.66
2019-03-29T07:48:05.326Z,980.68
2019-03-29T07:49:15.251Z,980.66
2019-03-29T07:50:25.184Z,980.67
2019-03-29T07:51:35.133Z,980.62
2019-03-29T07:52:45.064Z,980.63
2019-03-29T07:53:55.014Z,980.66
2019-03-29T07:55:04.944Z,980.72
2019-03-29T07:56:14.702Z,980.66
2019-03-29T07:57:24.633Z,980.68
2019-03-29T07:58:34.565Z,980.64
2019-03-29T07:59:44.237Z,980.59
2019-03-29T08:00:55.668Z,980.65
2019-03-29T08:02:05.595Z,980.67
2019-03-29T08:03:15.572Z,980.68
2019-03-29T08:04:29.057Z,980.7
2019-03-29T08:05:38.981Z,980.73
2019-03-29T08:06:50.361Z,980.73
2019-03-29T08:08:00.321Z,980.74
2019-03-29T08:09:23.780Z,980.68
2019-03-29T08:10:35.822Z,980.69
2019-03-29T08:11:46.745Z,980.76
2019-03-29T08:12:58.134Z,980.66
2019-03-29T08:14:08.089Z,980.69
2019-03-29T08:15:20.147Z,980.64
2019-03-29T08:16:30.094Z,980.68
2019-03-29T08:17:40.172Z,980.66
2019-03-29T08:18:50.164Z,980.66
2019-03-29T08:20:24.801Z,980.63
2019-03-29T08:21:51.406Z,980.58
2019-03-29T08:23:03.091Z,980.56
2019-03-29T08:24:13.125Z,980.64
2019-03-29T08:25:23.051Z,980.62
2019-03-29T08:26:32.978Z,980.58
2019-03-29T08:27:42.960Z,980.57
2019-03-29T08:28:52.899Z,980.58
2019-03-29T08:30:02.579Z,980.55
2019-03-29T08:31:12.515Z,980.63
2019-03-29T08:32:22.222Z,980.57
2019-03-29T08:33:32.155Z,980.54
2019-03-29T08:34:42.078Z,980.57
2019-03-29T08:35:52.011Z,980.5
2019-03-29T08:37:01.945Z,980.5
2019-03-29T08:38:11.944Z,980.48
2019-03-29T08:39:27.585Z,980.52
2019-03-29T08:40:38.114Z,980.44
2019-03-29T08:41:59.753Z,980.49
2019-03-29T08:43:10.233Z,980.44
2019-03-29T08:44:20.273Z,980.38
2019-03-29T08:45:30.213Z,980.41
2019-03-29T08:46:40.163Z,980.41
2019-03-29T08:47:50.144Z,980.46
2019-03-29T08:49:00.078Z,980.38
2019-03-29T08:50:10.009Z,980.34
2019-03-29T08:51:19.823Z,980.51
2019-03-29T08:52:29.777Z,980.42
2019-03-29T08:53:39.706Z,980.43
2019-03-29T08:54:51.262Z,980.43
2019-03-29T08:56:01.437Z,980.47
2019-03-29T08:57:11.395Z,980.47
2019-03-29T08:58:21.333Z,980.47
2019-03-29T08:59:31.264Z,980.44
2019-03-29T09:00:41.193Z,980.46
2019-03-29T09:01:51.126Z,980.45
2019-03-29T09:03:01.053Z,980.4
2019-03-29T09:04:11.031Z,980.49
2019-03-29T09:05:24.464Z,980.51
2019-03-29T09:06:34.553Z,980.48
2019-03-29T09:07:58.338Z,980.51
2019-03-29T09:09:08.270Z,980.39
2019-03-29T09:10:19.829Z,980.4
2019-03-29T09:11:29.866Z,980.45
2019-03-29T09:12:41.833Z,980.39
2019-03-29T09:13:51.840Z,980.41
2019-03-29T09:15:03.560Z,980.43
2019-03-29T09:16:13.986Z,980.3
2019-03-29T09:17:24.027Z,980.28
2019-03-29T09:18:33.974Z,980.2
2019-03-29T09:19:43.923Z,980.15
2019-03-29T09:20:53.843Z,980.12
2019-03-29T09:22:03.801Z,980.24
2019-03-29T09:23:13.734Z,980.3
2019-03-29T09:24:23.677Z,980.36
2019-03-29T09:25:33.352Z,980.32
2019-03-29T09:26:45.729Z,980.21
2019-03-29T09:27:55.668Z,980.31
2019-03-29T09:29:05.656Z,980.21
2019-03-29T09:30:15.612Z,980.27
2019-03-29T09:31:25.547Z,980.28
2019-03-29T09:32:35.482Z,980.38
2019-03-29T09:33:45.424Z,980.34
2019-03-29T09:34:58.955Z,980.43
2019-03-29T09:36:08.887Z,980.3
2019-03-29T09:37:18.886Z,980.44
2019-03-29T09:38:28.823Z,980.3
2019-03-29T09:39:38.749Z,980.37
2019-03-29T09:40:58.063Z,980.39
2019-03-29T09:42:09.716Z,980.33
2019-03-29T09:43:33.684Z,980.33
2019-03-29T09:44:43.611Z,980.34
2019-03-29T09:45:53.589Z,980.46
2019-03-29T09:47:05.978Z,980.49
2019-03-29T09:48:15.914Z,980.53
2019-03-29T09:49:25.845Z,980.54
2019-03-29T09:50:35.793Z,980.58
2019-03-29T09:51:51.658Z,980.53
2019-03-29T09:53:01.832Z,980.51
2019-03-29T09:54:11.788Z,980.56
2019-03-29T09:55:25.303Z,980.52
2019-03-29T09:56:38.921Z,980.6
2019-03-29T09:57:51.221Z,980.64
2019-03-29T09:59:01.147Z,980.6
2019-03-29T10:00:20.721Z,980.71
2019-03-29T10:01:32.877Z,980.64
2019-03-29T10:02:43.075Z,980.66
2019-03-29T10:03:53.288Z,980.65
2019-03-29T10:05:03.223Z,980.61
2019-03-29T10:06:15.244Z,980.65
2019-03-29T10:07:25.326Z,980.6
2019-03-29T10:08:35.358Z,980.6
2019-03-29T10:09:45.287Z,980.67
2019-03-29T10:10:55.220Z,980.68
2019-03-29T10:12:05.163Z,980.69
2019-03-29T10:13:15.086Z,980.69
2019-03-29T10:14:25.020Z,980.7
2019-03-29T10:15:38.599Z,980.65
2019-03-29T10:16:51.695Z,980.62
2019-03-29T10:18:01.626Z,980.71
2019-03-29T10:19:11.583Z,980.67
2019-03-29T10:20:21.569Z,980.64
2019-03-29T10:21:34.038Z,980.7
2019-03-29T10:22:44.160Z,980.64
2019-03-29T10:23:54.170Z,980.71
2019-03-29T10:25:17.930Z,980.65
2019-03-29T10:26:28.256Z,980.58
2019-03-29T10:27:38.211Z,980.69
2019-03-29T10:28:48.197Z,980.6
2019-03-29T10:29:57.874Z,980.64
2019-03-29T10:31:07.941Z,980.5
2019-03-29T10:32:31.702Z,980.71
2019-03-29T10:33:41.631Z,980.6
2019-03-29T10:34:54.258Z,980.63
2019-03-29T10:36:04.194Z,980.5
2019-03-29T10:37:14.173Z,980.61
2019-03-29T10:38:24.101Z,980.55
2019-03-29T10:39:35.709Z,980.61
2019-03-29T10:40:45.803Z,980.65
2019-03-29T10:41:55.736Z,980.64
2019-03-29T10:43:05.678Z,980.62
2019-03-29T10:44:15.603Z,980.68
2019-03-29T10:45:25.557Z,980.63
2019-03-29T10:46:42.316Z,980.66
2019-03-29T10:47:52.349Z,980.65
2019-03-29T10:49:02.374Z,980.72
2019-03-29T10:50:12.347Z,980.68
2019-03-29T10:51:22.296Z,980.7
2019-03-29T10:52:32.229Z,980.67
2019-03-29T10:53:42.212Z,980.72
2019-03-29T10:54:52.172Z,980.79
2019-03-29T10:56:02.111Z,980.84
2019-03-29T10:57:12.072Z,980.74
2019-03-29T10:58:22.010Z,980.88
2019-03-29T10:59:31.698Z,980.78
2019-03-29T11:00:41.627Z,980.79
2019-03-29T11:01:51.609Z,980.87
2019-03-29T11:03:01.539Z,980.86
2019-03-29T11:04:11.505Z,980.75
2019-03-29T11:05:21.445Z,980.76
2019-03-29T11:06:31.372Z,980.72
2019-03-29T11:07:41.365Z,980.68
2019-03-29T11:08:51.299Z,980.7
2019-03-29T11:10:01.278Z,980.68
2019-03-29T11:11:11.311Z,980.66
2019-03-29T11:12:21.251Z,980.67
2019-03-29T11:13:31.179Z,980.74
2019-03-29T11:14:43.970Z,980.72
2019-03-29T11:15:53.896Z,980.74
2019-03-29T11:17:03.831Z,980.96
2019-03-29T11:18:13.774Z,980.8
2019-03-29T11:19:23.708Z,980.68
2019-03-29T11:20:33.648Z,980.73
2019-03-29T11:21:43.584Z,980.63
2019-03-29T11:22:53.518Z,980.6
2019-03-29T11:24:03.201Z,980.6
2019-03-29T11:25:16.716Z,980.65
2019-03-29T11:26:26.652Z,980.59
2019-03-29T11:27:36.590Z,980.57
2019-03-29T11:28:46.575Z,980.49
2019-03-29T11:29:56.512Z,980.38
2019-03-29T11:31:06.461Z,980.51
2019-03-29T11:32:16.403Z,980.39
2019-03-29T11:33:26.334Z,980.32
2019-03-29T11:34:36.279Z,980.38
2019-03-29T11:35:46.222Z,980.4
2019-03-29T11:36:56.160Z,980.38
2019-03-29T11:38:05.849Z,980.42
2019-03-29T11:39:15.784Z,980.41
2019-03-29T11:40:27.944Z,980.33
2019-03-29T11:41:37.974Z,980.32
2019-03-29T11:42:47.911Z,980.26
2019-03-29T11:43:57.905Z,980.28
2019-03-29T11:45:07.859Z,980.27
2019-03-29T11:46:17.849Z,980.24
2019-03-29T11:47:27.785Z,980.27
2019-03-29T11:48:37.719Z,980.2
2019-03-29T11:49:47.665Z,980.23
2019-03-29T11:51:00.683Z,980.2
2019-03-29T11:52:24.401Z,980.17
2019-03-29T11:53:36.753Z,980.09
2019-03-29T11:54:46.706Z,980.15
2019-03-29T11:55:56.403Z,980.16
2019-03-29T11:57:06.360Z,980.2
2019-03-29T11:58:16.305Z,980.09
2019-03-29T11:59:26.239Z,980.15
2019-03-29T12:00:36.227Z,980.1
2019-03-29T12:01:46.173Z,980.05
2019-03-29T12:02:56.206Z,980.12
2019-03-29T12:04:09.521Z,980.05
2019-03-29T12:05:19.461Z,979.95
2019-03-29T12:06:29.409Z,979.91
2019-03-29T12:07:39.349Z,979.87
2019-03-29T12:08:49.295Z,979.91
2019-03-29T12:10:02.298Z,979.96
2019-03-29T12:11:12.258Z,979.88
2019-03-29T12:12:22.199Z,979.88
2019-03-29T12:13:41.151Z,979.89
2019-03-29T12:14:51.445Z,979.95
2019-03-29T12:16:01.387Z,979.91
2019-03-29T12:17:11.329Z,979.88
2019-03-29T12:18:21.277Z,979.93
2019-03-29T12:19:31.267Z,979.91
2019-03-29T12:20:41.211Z,979.91
2019-03-29T12:21:54.811Z,979.89
2019-03-29T12:23:04.497Z,979.88
2019-03-29T12:24:14.445Z,979.95
2019-03-29T12:25:24.381Z,979.89
2019-03-29T12:26:34.423Z,979.86
2019-03-29T12:27:44.362Z,979.98
2019-03-29T12:28:54.296Z,979.94
2019-03-29T12:30:04.233Z,979.92
2019-03-29T12:31:31.097Z,979.85
2019-03-29T12:32:41.042Z,979.82
2019-03-29T12:33:50.978Z,979.9
2019-03-29T12:35:00.998Z,979.86
2019-03-29T12:36:13.000Z,979.91
2019-03-29T12:37:23.000Z,979.88
2019-03-29T12:38:32.939Z,979.9
2019-03-29T12:39:42.880Z,979.91
2019-03-29T12:40:52.848Z,980
2019-03-29T12:42:02.799Z,979.95
2019-03-29T12:43:12.935Z,979.99
2019-03-29T12:44:22.974Z,979.97
2019-03-29T12:45:32.918Z,979.96
2019-03-29T12:46:42.855Z,980.05
2019-03-29T12:47:52.808Z,980.08
2019-03-29T12:49:02.755Z,980.07
2019-03-29T12:50:12.695Z,980.08
2019-03-29T12:51:22.636Z,979.95
2019-03-29T12:52:32.586Z,980.03
2019-03-29T12:53:42.277Z,980.04
2019-03-29T12:54:52.278Z,980.17
2019-03-29T12:56:02.221Z,980.09
2019-03-29T12:57:12.159Z,980.13
2019-03-29T12:58:22.104Z,979.95
2019-03-29T12:59:32.999Z,980.02
2019-03-29T13:00:43.105Z,979.98
2019-03-29T13:01:53.075Z,980.02
2019-03-29T13:03:03.017Z,980.07
2019-03-29T13:04:12.737Z,980.02
2019-03-29T13:05:22.727Z,980.02
2019-03-29T13:06:32.725Z,980.12
2019-03-29T13:07:42.664Z,980.08
2019-03-29T13:08:55.930Z,980.11
2019-03-29T13:10:05.873Z,980.14
2019-03-29T13:11:15.893Z,980.01
2019-03-29T13:12:25.885Z,980.23
2019-03-29T13:13:35.854Z,980.1
2019-03-29T13:14:45.827Z,979.99
2019-03-29T13:15:55.806Z,980.15
2019-03-29T13:17:05.754Z,980.05
2019-03-29T13:18:15.500Z,980.05
2019-03-29T13:19:25.531Z,980.02
2019-03-29T13:20:35.472Z,980.17
2019-03-29T13:21:45.412Z,980.2
2019-03-29T13:22:55.400Z,980.08
2019-03-29T13:24:05.350Z,980.05
2019-03-29T13:25:18.736Z,980.02
2019-03-29T13:26:28.678Z,980.1
2019-03-29T13:27:38.612Z,980.13
2019-03-29T13:28:48.553Z,979.94
2019-03-29T13:29:58.289Z,979.88
2019-03-29T13:31:08.244Z,979.74
2019-03-29T13:32:18.220Z,979.64
2019-03-29T13:33:28.159Z,979.81
2019-03-29T13:34:37.879Z,979.72
2019-03-29T13:35:51.498Z,979.84
2019-03-29T13:37:01.446Z,979.89
2019-03-29T13:38:11.386Z,979.92
2019-03-29T13:39:23.426Z,979.88
2019-03-29T13:40:33.409Z,979.85
2019-03-29T13:41:43.440Z,979.8
2019-03-29T13:42:53.378Z,979.72
2019-03-29T13:44:03.324Z,979.74
2019-03-29T13:45:28.862Z,979.99
2019-03-29T13:46:38.809Z,979.73
2019-03-29T13:47:48.806Z,979.74
2019-03-29T13:48:58.743Z,979.71
2019-03-29T13:50:08.882Z,979.87
2019-03-29T13:51:18.826Z,979.84
2019-03-29T13:52:31.136Z,980.01
2019-03-29T13:53:41.255Z,979.78
2019-03-29T13:54:51.191Z,979.74
2019-03-29T13:56:01.217Z,979.74
2019-03-29T13:57:11.162Z,979.74
2019-03-29T13:58:21.102Z,979.91
2019-03-29T13:59:31.863Z,979.61
2019-03-29T14:00:41.766Z,979.7
2019-03-29T14:01:51.701Z,979.7
2019-03-29T14:03:01.649Z,979.85
2019-03-29T14:04:11.633Z,979.78
2019-03-29T14:05:21.568Z,979.87
2019-03-29T14:06:31.500Z,979.75
2019-03-29T14:07:41.434Z,979.86
2019-03-29T14:08:51.372Z,979.83
2019-03-29T14:10:01.308Z,979.95
2019-03-29T14:11:11.240Z,979.9
2019-03-29T14:12:21.251Z,980.33
2019-03-29T14:13:31.188Z,980.18
2019-03-29T14:14:40.875Z,980.21
2019-03-29T14:15:50.916Z,980.31
2019-03-29T14:17:00.850Z,980.18
2019-03-29T14:18:10.802Z,980
2019-03-29T14:19:20.736Z,980
2019-03-29T14:20:33.453Z,979.97
2019-03-29T14:21:43.186Z,980.17
2019-03-29T14:22:53.120Z,980.14
2019-03-29T14:24:02.811Z,980.29
2019-03-29T14:25:12.751Z,979.98
2019-03-29T14:26:22.689Z,980.17
2019-03-29T14:27:32.698Z,980.27
2019-03-29T14:28:42.379Z,980.34
2019-03-29T14:30:03.460Z,980.08
2019-03-29T14:31:14.282Z,979.96
2019-03-29T14:32:24.222Z,980.23
2019-03-29T14:33:34.154Z,980.04
2019-03-29T14:34:44.104Z,980
2019-03-29T14:35:54.041Z,980.05
2019-03-29T14:37:03.983Z,980.18
2019-03-29T14:38:13.974Z,980.17
2019-03-29T14:39:23.909Z,980.26
2019-03-29T14:40:33.861Z,980.17
2019-03-29T14:41:43.803Z,980.18
2019-03-29T14:42:53.743Z,980.19
2019-03-29T14:44:03.789Z,980.12